createdAt,value
2015-11-05T00:00:09.922Z,85.33
2015-11-05T00:00:22.219Z,85.42
2015-11-05T00:00:34.504Z,85.33
2015-11-05T00:00:46.816Z,85.52
2015-11-05T00:00:59.129Z,85.24
2015-11-05T00:01:11.457Z,85.42
2015-11-05T00:01:23.785Z,85.33
2015-11-05T00:01:36.116Z,85.52
2015-11-05T00:01:48.413Z,85.71
2015-11-05T00:02:00.725Z,85.61
2015-11-05T00:02:13.022Z,85.8
2015-11-05T00:02:25.319Z,85.8
2015-11-05T00:02:37.635Z,85.8
2015-11-05T00:02:49.931Z,85.61
2015-11-05T00:03:02.228Z,85.61
2015-11-05T00:03:14.541Z,85.52
2015-11-05T00:03:26.853Z,85.8
2015-11-05T00:03:39.183Z,86.28
2015-11-05T00:03:51.512Z,85.9
2015-11-05T00:04:03.855Z,86.18
2015-11-05T00:04:16.152Z,86.09
2015-11-05T00:04:28.433Z,86.37
2015-11-05T00:04:40.733Z,86.47
2015-11-05T00:04:53.046Z,86.37
2015-11-05T00:05:05.343Z,86.18
2015-11-05T00:05:17.640Z,85.99
2015-11-05T00:05:29.952Z,85.99
2015-11-05T00:05:42.251Z,86.09
2015-11-05T00:05:54.579Z,85.8
2015-11-05T00:06:06.892Z,85.42
2015-11-05T00:06:19.220Z,85.71
2015-11-05T00:06:31.548Z,85.61
2015-11-05T00:06:43.879Z,85.8
2015-11-05T00:06:56.176Z,86.28
2015-11-05T00:07:08.457Z,85.9
2015-11-05T00:07:20.754Z,86.18
2015-11-05T00:07:33.054Z,86.28
2015-11-05T00:07:45.351Z,85.99
2015-11-05T00:07:57.663Z,86.47
2015-11-05T00:08:09.944Z,86.28
2015-11-05T00:08:22.273Z,86.09
2015-11-05T00:08:34.588Z,86.09
2015-11-05T00:08:46.916Z,86.56
2015-11-05T00:08:59.244Z,86.66
2015-11-05T00:09:11.588Z,86.66
2015-11-05T00:09:23.901Z,86.94
2015-11-05T00:09:36.215Z,86.75
2015-11-05T00:09:48.512Z,87.23
2015-11-05T00:10:00.793Z,86.85
2015-11-05T00:10:13.090Z,86.75
2015-11-05T00:10:25.403Z,86.85
2015-11-05T00:10:37.702Z,87.13
2015-11-05T00:10:49.999Z,86.75
2015-11-05T00:11:02.312Z,86.85
2015-11-05T00:11:14.640Z,86.85
2015-11-05T00:11:26.796Z,86.37
2015-11-05T00:11:39.127Z,86.28
2015-11-05T00:11:51.471Z,86.37
2015-11-05T00:12:03.768Z,86.28
2015-11-05T00:12:16.065Z,86.28
2015-11-05T00:12:28.346Z,86.09
2015-11-05T00:12:40.646Z,85.99
2015-11-05T00:12:52.958Z,86.18
2015-11-05T00:13:05.255Z,85.99
2015-11-05T00:13:17.552Z,86.28
2015-11-05T00:13:29.708Z,85.9
2015-11-05T00:13:42.007Z,85.61
2015-11-05T00:13:54.351Z,85.8
2015-11-05T00:14:06.679Z,85.8
2015-11-05T00:14:18.976Z,85.24
2015-11-05T00:14:31.273Z,85.33
2015-11-05T00:14:43.588Z,85.42
2015-11-05T00:14:55.885Z,85.42
2015-11-05T00:15:08.167Z,85.05
2015-11-05T00:15:20.479Z,85.33
2015-11-05T00:15:32.635Z,84.86
2015-11-05T00:15:44.951Z,85.14
2015-11-05T00:15:57.263Z,85.33
2015-11-05T00:16:09.435Z,85.42
2015-11-05T00:16:21.763Z,85.42
2015-11-05T00:16:34.107Z,85.61
2015-11-05T00:16:46.423Z,85.42
2015-11-05T00:16:58.704Z,85.71
2015-11-05T00:17:11.001Z,86.18
2015-11-05T00:17:23.282Z,86.28
2015-11-05T00:17:35.579Z,86.56
2015-11-05T00:17:47.878Z,87.13
2015-11-05T00:18:00.190Z,86.94
2015-11-05T00:18:12.487Z,86.85
2015-11-05T00:18:24.800Z,87.32
2015-11-05T00:18:37.112Z,87.51
2015-11-05T00:18:49.443Z,87.23
2015-11-05T00:19:01.771Z,87.41
2015-11-05T00:19:14.099Z,87.98
2015-11-05T00:19:26.444Z,88.17
2015-11-05T00:19:38.741Z,88.36
2015-11-05T00:19:51.040Z,88.45
2015-11-05T00:20:03.337Z,88.45
2015-11-05T00:20:15.634Z,88.83
2015-11-05T00:20:27.931Z,88.83
2015-11-05T00:20:40.227Z,88.93
2015-11-05T00:20:52.372Z,89.02
2015-11-05T00:21:04.685Z,89.78
2015-11-05T00:21:16.981Z,89.12
2015-11-05T00:21:29.310Z,90.06
2015-11-05T00:21:41.638Z,89.87
2015-11-05T00:21:53.984Z,90.44
2015-11-05T00:22:06.313Z,90.25
2015-11-05T00:22:18.609Z,90.16
2015-11-05T00:22:30.906Z,89.69
2015-11-05T00:22:43.203Z,89.5
2015-11-05T00:22:55.502Z,90.25
2015-11-05T00:23:07.799Z,89.69
2015-11-05T00:23:20.096Z,90.06
2015-11-05T00:23:32.393Z,89.59
2015-11-05T00:23:44.705Z,89.87
2015-11-05T00:23:57.004Z,89.87
2015-11-05T00:24:09.348Z,90.06
2015-11-05T00:24:21.692Z,90.06
2015-11-05T00:24:34.020Z,90.06
2015-11-05T00:24:46.348Z,89.69
2015-11-05T00:24:58.649Z,90.06
2015-11-05T00:25:10.946Z,90.16
2015-11-05T00:25:23.227Z,90.82
2015-11-05T00:25:35.524Z,90.16
2015-11-05T00:25:47.836Z,89.87
2015-11-05T00:26:00.135Z,90.82
2015-11-05T00:26:12.416Z,90.53
2015-11-05T00:26:24.713Z,90.72
2015-11-05T00:26:37.026Z,90.82
2015-11-05T00:26:49.338Z,89.97
2015-11-05T00:27:01.669Z,90.34
2015-11-05T00:27:13.997Z,90.72
2015-11-05T00:27:26.279Z,90.53
2015-11-05T00:27:38.576Z,90.44
2015-11-05T00:27:50.872Z,90.06
2015-11-05T00:28:03.172Z,90.16
2015-11-05T00:28:15.469Z,89.97
2015-11-05T00:28:27.766Z,90.25
2015-11-05T00:28:40.063Z,90.16
2015-11-05T00:28:52.375Z,90.16
2015-11-05T00:29:04.691Z,90.16
2015-11-05T00:29:17.003Z,90.06
2015-11-05T00:29:29.332Z,90.06
2015-11-05T00:29:41.685Z,90.25
2015-11-05T00:29:54.013Z,90.06
2015-11-05T00:30:06.296Z,90.53
2015-11-05T00:30:18.593Z,89.97
2015-11-05T00:30:30.890Z,90.44
2015-11-05T00:30:43.203Z,90.63
2015-11-05T00:30:55.500Z,90.34
2015-11-05T00:31:07.799Z,90.34
2015-11-05T00:31:20.112Z,90.91
2015-11-05T00:31:32.424Z,90.91
2015-11-05T00:31:44.737Z,90.91
2015-11-05T00:31:57.065Z,91.01
2015-11-05T00:32:09.412Z,90.53
2015-11-05T00:32:21.740Z,90.34
2015-11-05T00:32:34.037Z,90.34
2015-11-05T00:32:46.334Z,91.01
2015-11-05T00:32:58.474Z,91.01
2015-11-05T00:33:10.774Z,90.91
2015-11-05T00:33:23.071Z,91.2
2015-11-05T00:33:35.384Z,91.2
2015-11-05T00:33:47.680Z,91.01
2015-11-05T00:34:00.009Z,91.1
2015-11-05T00:34:12.340Z,91.2
2015-11-05T00:34:24.652Z,91.29
2015-11-05T00:34:36.949Z,91.39
2015-11-05T00:34:49.262Z,91.58
2015-11-05T00:35:01.558Z,91.58
2015-11-05T00:35:13.857Z,91.48
2015-11-05T00:35:26.170Z,91.29
2015-11-05T00:35:38.467Z,91.86
2015-11-05T00:35:50.764Z,91.29
2015-11-05T00:36:03.092Z,91.86
2015-11-05T00:36:15.406Z,91.77
2015-11-05T00:36:27.734Z,91.86
2015-11-05T00:36:40.062Z,91.96
2015-11-05T00:36:52.391Z,91.67
2015-11-05T00:37:04.750Z,91.67
2015-11-05T00:37:17.019Z,91.96
2015-11-05T00:37:29.316Z,91.96
2015-11-05T00:37:41.629Z,91.48
2015-11-05T00:37:53.925Z,91.77
2015-11-05T00:38:06.254Z,91.86
2015-11-05T00:38:18.540Z,91.86
2015-11-05T00:38:30.837Z,91.77
2015-11-05T00:38:43.150Z,91.86
2015-11-05T00:38:55.462Z,91.86
2015-11-05T00:39:07.775Z,91.96
2015-11-05T00:39:20.076Z,91.96
2015-11-05T00:39:32.373Z,91.48
2015-11-05T00:39:44.670Z,91.67
2015-11-05T00:39:56.967Z,91.86
2015-11-05T00:40:09.264Z,91.67
2015-11-05T00:40:21.566Z,91.86
2015-11-05T00:40:33.863Z,91.96
2015-11-05T00:40:46.176Z,92.14
2015-11-05T00:40:58.488Z,92.33
2015-11-05T00:41:10.801Z,92.33
2015-11-05T00:41:23.104Z,92.33
2015-11-05T00:41:35.432Z,92.14
2015-11-05T00:41:47.729Z,91.96
2015-11-05T00:42:00.026Z,91.96
2015-11-05T00:42:11.589Z,92.14
2015-11-05T00:42:23.883Z,91.96
2015-11-05T00:42:36.180Z,92.05
2015-11-05T00:42:48.477Z,92.05
2015-11-05T00:43:00.774Z,92.05
2015-11-05T00:43:13.087Z,92.14
2015-11-05T00:43:25.413Z,92.33
2015-11-05T00:43:37.741Z,92.14
2015-11-05T00:43:50.085Z,92.05
2015-11-05T00:44:02.413Z,91.96
2015-11-05T00:44:14.708Z,91.96
2015-11-05T00:44:27.004Z,92.14
2015-11-05T00:44:39.333Z,91.58
2015-11-05T00:44:51.629Z,91.86
2015-11-05T00:45:03.926Z,91.96
2015-11-05T00:45:16.221Z,91.29
2015-11-05T00:45:28.518Z,91.96
2015-11-05T00:45:40.815Z,91.39
2015-11-05T00:45:53.127Z,91.2
2015-11-05T00:46:05.440Z,91.1
2015-11-05T00:46:17.768Z,91.29
2015-11-05T00:46:30.096Z,91.2
2015-11-05T00:46:42.424Z,91.2
2015-11-05T00:46:54.768Z,91.1
2015-11-05T00:47:07.049Z,91.1
2015-11-05T00:47:19.346Z,91.2
2015-11-05T00:47:31.643Z,91.2
2015-11-05T00:47:43.956Z,91.29
2015-11-05T00:47:56.237Z,91.2
2015-11-05T00:48:08.549Z,90.82
2015-11-05T00:48:20.878Z,91.39
2015-11-05T00:48:33.191Z,91.29
2015-11-05T00:48:45.519Z,91.1
2015-11-05T00:48:57.863Z,90.91
2015-11-05T00:49:10.160Z,91.2
2015-11-05T00:49:22.459Z,91.39
2015-11-05T00:49:34.755Z,91.48
2015-11-05T00:49:47.052Z,91.86
2015-11-05T00:49:59.365Z,91.86
2015-11-05T00:50:11.662Z,91.67
2015-11-05T00:50:23.960Z,91.96
2015-11-05T00:50:36.272Z,91.77
2015-11-05T00:50:48.569Z,91.86
2015-11-05T00:51:00.897Z,91.77
2015-11-05T00:51:13.225Z,91.48
2015-11-05T00:51:25.570Z,91.39
2015-11-05T00:51:37.882Z,91.39
2015-11-05T00:51:50.179Z,91.2
2015-11-05T00:52:02.476Z,91.1
2015-11-05T00:52:14.773Z,90.91
2015-11-05T00:52:27.072Z,91.1
2015-11-05T00:52:39.384Z,91.1
2015-11-05T00:52:51.681Z,91.01
2015-11-05T00:53:03.978Z,90.91
2015-11-05T00:53:16.291Z,91.01
2015-11-05T00:53:28.605Z,91.39
2015-11-05T00:53:40.949Z,91.29
2015-11-05T00:53:53.277Z,91.2
2015-11-05T00:54:05.433Z,91.2
2015-11-05T00:54:17.715Z,91.2
2015-11-05T00:54:30.029Z,90.82
2015-11-05T00:54:42.342Z,91.01
2015-11-05T00:54:54.654Z,91.1
2015-11-05T00:55:06.951Z,91.1
2015-11-05T00:55:19.263Z,91.01
2015-11-05T00:55:31.562Z,91.48
2015-11-05T00:55:43.875Z,90.91
2015-11-05T00:55:56.203Z,91.1
2015-11-05T00:56:08.531Z,91.01
2015-11-05T00:56:20.859Z,91.2
2015-11-05T00:56:33.158Z,91.1
2015-11-05T00:56:45.471Z,91.2
2015-11-05T00:56:57.767Z,91.1
2015-11-05T00:57:10.064Z,91.1
2015-11-05T00:57:22.364Z,91.2
2015-11-05T00:57:34.677Z,91.2
2015-11-05T00:57:46.989Z,91.29
2015-11-05T00:57:59.302Z,91.29
2015-11-05T00:58:11.645Z,91.1
2015-11-05T00:58:23.977Z,91.2
2015-11-05T00:58:36.336Z,90.72
2015-11-05T00:58:48.633Z,90.91
2015-11-05T00:59:00.930Z,90.91
2015-11-05T00:59:13.227Z,90.91
2015-11-05T00:59:25.525Z,90.82
2015-11-05T00:59:37.822Z,90.91
2015-11-05T00:59:50.119Z,90.82
2015-11-05T01:00:02.416Z,90.82
2015-11-05T01:00:14.729Z,90.82
2015-11-05T01:00:27.045Z,91.2
2015-11-05T01:00:39.358Z,91.2
2015-11-05T01:00:51.686Z,91.29
2015-11-05T01:01:04.029Z,91.2
2015-11-05T01:01:16.358Z,90.91
2015-11-05T01:01:28.641Z,91.1
2015-11-05T01:01:40.922Z,91.1
2015-11-05T01:01:53.219Z,90.82
2015-11-05T01:02:05.500Z,90.91
2015-11-05T01:02:17.781Z,91.29
2015-11-05T01:02:30.066Z,91.39
2015-11-05T01:02:42.363Z,91.29
2015-11-05T01:02:54.691Z,91.39
2015-11-05T01:03:06.988Z,91.2
2015-11-05T01:03:19.316Z,91.01
2015-11-05T01:03:31.647Z,91.1
2015-11-05T01:03:43.991Z,91.2
2015-11-05T01:03:56.319Z,91.2
2015-11-05T01:04:08.616Z,91.2
2015-11-05T01:04:20.912Z,91.2
2015-11-05T01:04:33.211Z,90.72
2015-11-05T01:04:45.508Z,90.91
2015-11-05T01:04:57.805Z,91.01
2015-11-05T01:05:10.086Z,91.01
2015-11-05T01:05:22.383Z,91.01
2015-11-05T01:05:34.713Z,90.82
2015-11-05T01:05:47.026Z,90.91
2015-11-05T01:05:59.354Z,91.1
2015-11-05T01:06:11.682Z,91.1
2015-11-05T01:06:23.979Z,91.1
2015-11-05T01:06:36.280Z,91.1
2015-11-05T01:06:48.577Z,90.91
2015-11-05T01:07:00.889Z,91.2
2015-11-05T01:07:13.186Z,90.91
2015-11-05T01:07:25.483Z,91.2
2015-11-05T01:07:37.783Z,91.48
2015-11-05T01:07:50.111Z,91.29
2015-11-05T01:08:02.408Z,91.77
2015-11-05T01:08:14.736Z,91.58
2015-11-05T01:08:27.064Z,91.77
2015-11-05T01:08:39.363Z,91.77
2015-11-05T01:08:51.660Z,91.86
2015-11-05T01:09:03.957Z,92.05
2015-11-05T01:09:16.254Z,91.77
2015-11-05T01:09:28.566Z,91.96
2015-11-05T01:09:40.849Z,91.96
2015-11-05T01:09:53.146Z,92.14
2015-11-05T01:10:05.474Z,91.48
2015-11-05T01:10:17.787Z,91.48
2015-11-05T01:10:30.115Z,91.2
2015-11-05T01:10:42.431Z,91.01
2015-11-05T01:10:54.760Z,91.1
2015-11-05T01:11:07.072Z,91.2
2015-11-05T01:11:19.369Z,91.2
2015-11-05T01:11:31.666Z,91.1
2015-11-05T01:11:43.966Z,91.01
2015-11-05T01:11:56.263Z,90.82
2015-11-05T01:12:08.559Z,90.82
2015-11-05T01:12:20.856Z,90.91
2015-11-05T01:12:33.184Z,91.1
2015-11-05T01:12:45.483Z,90.91
2015-11-05T01:12:57.796Z,90.72
2015-11-05T01:13:10.124Z,91.01
2015-11-05T01:13:22.405Z,91.1
2015-11-05T01:13:34.561Z,91.2
2015-11-05T01:13:46.861Z,90.91
2015-11-05T01:13:59.158Z,91.01
2015-11-05T01:14:11.455Z,91.48
2015-11-05T01:14:23.752Z,91.1
2015-11-05T01:14:36.064Z,91.2
2015-11-05T01:14:48.364Z,91.2
2015-11-05T01:15:00.677Z,91.1
2015-11-05T01:15:12.989Z,91.2
2015-11-05T01:15:25.317Z,91.29
2015-11-05T01:15:37.646Z,91.1
2015-11-05T01:15:49.960Z,91.2
2015-11-05T01:16:02.257Z,91.2
2015-11-05T01:16:14.538Z,91.2
2015-11-05T01:16:26.835Z,91.01
2015-11-05T01:16:39.132Z,91.1
2015-11-05T01:16:51.447Z,91.01
2015-11-05T01:17:03.744Z,91.2
2015-11-05T01:17:16.057Z,91.2
2015-11-05T01:17:28.213Z,91.2
2015-11-05T01:17:40.541Z,90.91
2015-11-05T01:17:52.857Z,91.39
2015-11-05T01:18:05.185Z,91.1
2015-11-05T01:18:17.513Z,91.1
2015-11-05T01:18:29.810Z,91.2
2015-11-05T01:18:42.107Z,91.29
2015-11-05T01:18:54.406Z,90.82
2015-11-05T01:19:06.702Z,91.01
2015-11-05T01:19:18.999Z,90.34
2015-11-05T01:19:31.312Z,90.53
2015-11-05T01:19:43.656Z,90.63
2015-11-05T01:19:55.988Z,90.44
2015-11-05T01:20:08.331Z,90.06
2015-11-05T01:20:20.628Z,90.16
2015-11-05T01:20:32.925Z,90.06
2015-11-05T01:20:45.238Z,89.87
2015-11-05T01:20:57.537Z,90.44
2015-11-05T01:21:09.833Z,89.97
2015-11-05T01:21:22.130Z,90.06
2015-11-05T01:21:34.427Z,90.16
2015-11-05T01:21:46.740Z,90.06
2015-11-05T01:21:59.055Z,90.16
2015-11-05T01:22:11.383Z,90.44
2015-11-05T01:22:23.711Z,90.06
2015-11-05T01:22:36.040Z,89.78
2015-11-05T01:23:13.511Z,89.59
2015-11-05T01:23:25.824Z,89.21
2015-11-05T01:23:38.121Z,89.4
2015-11-05T01:23:50.418Z,89.5
2015-11-05T01:24:02.716Z,89.4
2015-11-05T01:24:15.013Z,89.4
2015-11-05T01:24:27.341Z,90.06
2015-11-05T01:24:39.670Z,89.5
2015-11-05T01:24:51.998Z,89.5
2015-11-05T01:25:04.298Z,89.5
2015-11-05T01:25:16.594Z,89.97
2015-11-05T01:25:28.891Z,89.97
2015-11-05T01:25:41.188Z,89.97
2015-11-05T01:25:53.501Z,90.34
2015-11-05T01:26:05.816Z,90.25
2015-11-05T01:26:18.129Z,90.16
2015-11-05T01:26:30.457Z,90.44
2015-11-05T01:26:42.785Z,90.63
2015-11-05T01:26:55.082Z,90.16
2015-11-05T01:27:07.225Z,90.82
2015-11-05T01:27:19.522Z,89.69
2015-11-05T01:27:31.835Z,90.44
2015-11-05T01:27:44.147Z,89.97
2015-11-05T01:27:56.446Z,89.97
2015-11-05T01:28:08.743Z,89.78
2015-11-05T01:28:21.056Z,89.97
2015-11-05T01:28:33.368Z,89.87
2015-11-05T01:28:45.696Z,89.87
2015-11-05T01:28:58.011Z,90.25
2015-11-05T01:29:10.308Z,90.16
2015-11-05T01:29:22.604Z,90.06
2015-11-05T01:29:34.917Z,90.34
2015-11-05T01:29:47.214Z,90.16
2015-11-05T01:29:59.530Z,90.34
2015-11-05T01:30:11.827Z,89.97
2015-11-05T01:30:24.140Z,89.87
2015-11-05T01:30:36.452Z,90.06
2015-11-05T01:30:48.765Z,89.87
2015-11-05T01:31:01.095Z,90.25
2015-11-05T01:31:13.439Z,90.25
2015-11-05T01:31:25.751Z,90.16
2015-11-05T01:31:38.064Z,90.06
2015-11-05T01:31:50.360Z,90.16
2015-11-05T01:32:02.660Z,90.25
2015-11-05T01:32:14.957Z,90.16
2015-11-05T01:32:27.270Z,90.72
2015-11-05T01:32:39.410Z,90.06
2015-11-05T01:32:51.738Z,90.16
2015-11-05T01:33:04.038Z,89.87
2015-11-05T01:33:16.366Z,90.16
2015-11-05T01:33:28.679Z,90.53
2015-11-05T01:33:41.038Z,90.44
2015-11-05T01:33:53.382Z,90.63
2015-11-05T01:34:05.682Z,90.72
2015-11-05T01:34:17.963Z,90.53
2015-11-05T01:34:30.276Z,90.63
2015-11-05T01:34:42.573Z,90.44
2015-11-05T01:34:54.948Z,89.87
2015-11-05T01:35:07.247Z,89.97
2015-11-05T01:35:19.576Z,89.87
2015-11-05T01:35:31.888Z,90.25
2015-11-05T01:35:44.185Z,90.34
2015-11-05T01:35:56.482Z,89.87
2015-11-05T01:36:08.796Z,90.16
2015-11-05T01:36:21.093Z,90.25
2015-11-05T01:36:33.374Z,90.25
2015-11-05T01:36:45.671Z,90.25
2015-11-05T01:36:57.999Z,90.82
2015-11-05T01:37:10.315Z,90.34
2015-11-05T01:37:22.643Z,90.06
2015-11-05T01:37:34.799Z,89.87
2015-11-05T01:37:47.127Z,90.25
2015-11-05T01:37:59.440Z,89.87
2015-11-05T01:38:11.724Z,90.06
2015-11-05T01:38:24.021Z,90.06
2015-11-05T01:38:36.334Z,90.16
2015-11-05T01:38:48.646Z,90.25
2015-11-05T01:39:00.943Z,90.34
2015-11-05T01:39:13.258Z,90.63
2015-11-05T01:39:25.555Z,90.34
2015-11-05T01:39:37.883Z,90.34
2015-11-05T01:39:50.212Z,90.06
2015-11-05T01:40:02.540Z,90.63
2015-11-05T01:40:14.854Z,90.34
2015-11-05T01:40:27.151Z,91.1
2015-11-05T01:40:39.448Z,90.82
2015-11-05T01:40:51.745Z,91.2
2015-11-05T01:41:04.057Z,90.82
2015-11-05T01:41:16.357Z,91.39
2015-11-05T01:41:28.654Z,91.29
2015-11-05T01:41:40.967Z,91.2
2015-11-05T01:41:53.279Z,91.2
2015-11-05T01:42:05.607Z,91.1
2015-11-05T01:42:17.938Z,91.1
2015-11-05T01:42:30.235Z,91.15
2015-11-05T01:42:42.532Z,91.2
2015-11-05T01:42:54.845Z,91.77
2015-11-05T01:43:07.141Z,91.72
2015-11-05T01:43:19.456Z,91.81
2015-11-05T01:43:31.737Z,91.34
2015-11-05T01:43:44.034Z,91.48
2015-11-05T01:43:56.362Z,91.43
2015-11-05T01:44:08.675Z,91.24
2015-11-05T01:44:20.990Z,91.15
2015-11-05T01:44:33.318Z,91.15
2015-11-05T01:44:45.646Z,91.34
2015-11-05T01:44:57.990Z,91.34
2015-11-05T01:45:10.287Z,91.43
2015-11-05T01:45:22.587Z,91.34
2015-11-05T01:45:34.884Z,90.96
2015-11-05T01:45:47.181Z,91.34
2015-11-05T01:45:59.478Z,90.96
2015-11-05T01:46:11.792Z,91.24
2015-11-05T01:46:24.105Z,91.24
2015-11-05T01:46:36.433Z,90.96
2015-11-05T01:46:48.776Z,91.05
2015-11-05T01:47:01.073Z,91.05
2015-11-05T01:47:13.373Z,91.34
2015-11-05T01:47:25.686Z,91.15
2015-11-05T01:47:37.983Z,90.86
2015-11-05T01:47:50.279Z,90.77
2015-11-05T01:48:02.608Z,91.43
2015-11-05T01:48:14.907Z,91.24
2015-11-05T01:48:27.220Z,91.81
2015-11-05T01:48:39.532Z,91.62
2015-11-05T01:48:51.845Z,91.29
2015-11-05T01:49:04.173Z,91.86
2015-11-05T01:49:16.488Z,91.29
2015-11-05T01:49:28.784Z,91.43
2015-11-05T01:49:41.081Z,91.72
2015-11-05T01:49:53.378Z,91.96
2015-11-05T01:50:05.675Z,91.53
2015-11-05T01:50:17.975Z,91.2
2015-11-05T01:50:30.272Z,91.2
2015-11-05T01:50:42.584Z,91.39
2015-11-05T01:50:54.897Z,91.01
2015-11-05T01:51:07.209Z,91.05
2015-11-05T01:51:19.540Z,91.05
2015-11-05T01:51:31.853Z,91.05
2015-11-05T01:51:44.165Z,91.05
2015-11-05T01:51:56.462Z,91.1
2015-11-05T01:52:08.775Z,91.15
2015-11-05T01:52:21.075Z,91.05
2015-11-05T01:52:33.387Z,90.91
2015-11-05T01:52:45.684Z,91.01
2015-11-05T01:52:57.997Z,91.15
2015-11-05T01:53:10.293Z,90.86
2015-11-05T01:53:22.624Z,91.05
2015-11-05T01:53:34.952Z,91.24
2015-11-05T01:53:47.280Z,91.15
2015-11-05T01:53:59.608Z,91.72
2015-11-05T01:54:11.920Z,91.72
2015-11-05T01:54:24.237Z,91.24
2015-11-05T01:54:36.518Z,92.1
2015-11-05T01:54:48.815Z,91.81
2015-11-05T01:55:01.128Z,91.81
2015-11-05T01:55:13.424Z,91.43
2015-11-05T01:55:25.723Z,91.62
2015-11-05T01:55:38.020Z,91.81
2015-11-05T01:55:50.348Z,92
2015-11-05T01:56:02.661Z,91.81
2015-11-05T01:56:14.989Z,91.81
2015-11-05T01:56:27.351Z,91.72
2015-11-05T01:56:39.648Z,91.81
2015-11-05T01:56:51.945Z,91.62
2015-11-05T01:57:04.242Z,91.43
2015-11-05T01:57:16.523Z,91.72
2015-11-05T01:57:28.839Z,91.81
2015-11-05T01:57:41.136Z,91.72
2015-11-05T01:57:53.432Z,91.53
2015-11-05T01:58:05.745Z,91.81
2015-11-05T01:58:18.057Z,91.72
2015-11-05T01:58:30.388Z,91.62
2015-11-05T01:58:42.716Z,91.62
2015-11-05T01:58:55.044Z,91.53
2015-11-05T01:59:07.341Z,91.91
2015-11-05T01:59:19.638Z,91.81
2015-11-05T01:59:31.937Z,91.72
2015-11-05T01:59:44.234Z,91.43
2015-11-05T01:59:56.531Z,91.81
2015-11-05T02:00:08.828Z,91.72
2015-11-05T02:00:21.141Z,91.81
2015-11-05T02:00:33.456Z,92
2015-11-05T02:00:45.769Z,91.53
2015-11-05T02:00:58.097Z,91.43
2015-11-05T02:01:10.440Z,91.34
2015-11-05T02:01:22.769Z,91.24
2015-11-05T02:01:35.067Z,91.24
2015-11-05T02:01:47.364Z,91.24
2015-11-05T02:01:59.661Z,91.15
2015-11-05T02:02:11.958Z,91.05
2015-11-05T02:02:24.255Z,91.15
2015-11-05T02:02:36.570Z,90.96
2015-11-05T02:02:48.867Z,91.53
2015-11-05T02:03:01.180Z,91.34
2015-11-05T02:03:13.492Z,91.53
2015-11-05T02:03:25.820Z,91.24
2015-11-05T02:03:38.152Z,91.24
2015-11-05T02:03:50.480Z,91.34
2015-11-05T02:04:02.808Z,91.91
2015-11-05T02:04:15.120Z,91.24
2015-11-05T02:04:27.417Z,91.91
2015-11-05T02:04:39.717Z,91.62
2015-11-05T02:04:52.014Z,92
2015-11-05T02:05:04.311Z,92.1
2015-11-05T02:05:16.608Z,92
2015-11-05T02:05:28.905Z,92.66
2015-11-05T02:05:41.220Z,92.38
2015-11-05T02:05:53.548Z,92.47
2015-11-05T02:06:05.861Z,92.38
2015-11-05T02:06:18.033Z,92.19
2015-11-05T02:06:30.361Z,92.19
2015-11-05T02:06:42.706Z,92.38
2015-11-05T02:06:55.035Z,92.47
2015-11-05T02:07:07.331Z,92.76
2015-11-05T02:07:19.628Z,92.1
2015-11-05T02:07:31.910Z,92
2015-11-05T02:07:44.210Z,92.1
2015-11-05T02:07:56.539Z,92.1
2015-11-05T02:08:08.851Z,92.1
2015-11-05T02:08:21.179Z,91.91
2015-11-05T02:08:33.507Z,91.72
2015-11-05T02:08:45.806Z,91.53
2015-11-05T02:08:58.103Z,91.81
2015-11-05T02:09:10.400Z,91.81
2015-11-05T02:09:22.712Z,91.81
2015-11-05T02:09:35.009Z,91.62
2015-11-05T02:09:47.308Z,91.24
2015-11-05T02:09:59.621Z,91.81
2015-11-05T02:10:11.918Z,91.72
2015-11-05T02:10:24.230Z,91.81
2015-11-05T02:10:36.543Z,91.24
2015-11-05T02:10:48.874Z,91.24
2015-11-05T02:11:01.202Z,91.43
2015-11-05T02:11:13.546Z,91.24
2015-11-05T02:11:25.842Z,91.24
2015-11-05T02:11:38.139Z,91.24
2015-11-05T02:11:50.439Z,91.62
2015-11-05T02:12:02.736Z,91.24
2015-11-05T02:12:15.033Z,91.24
2015-11-05T02:12:27.330Z,91.53
2015-11-05T02:12:39.611Z,91.81
2015-11-05T02:12:51.911Z,91.15
2015-11-05T02:13:04.208Z,91.81
2015-11-05T02:13:16.520Z,91.72
2015-11-05T02:13:28.848Z,91.24
2015-11-05T02:13:41.177Z,91.81
2015-11-05T02:13:53.476Z,91.62
2015-11-05T02:14:05.773Z,91.24
2015-11-05T02:14:18.070Z,91.24
2015-11-05T02:14:30.367Z,91.24
2015-11-05T02:14:42.664Z,91.53
2015-11-05T02:14:55.010Z,91.15
2015-11-05T02:15:07.307Z,90.96
2015-11-05T02:15:19.603Z,91.05
2015-11-05T02:15:31.916Z,91.05
2015-11-05T02:15:44.260Z,90.86
2015-11-05T02:15:56.591Z,91.05
2015-11-05T02:16:08.903Z,90.86
2015-11-05T02:16:21.200Z,91.05
2015-11-05T02:16:33.513Z,91.05
2015-11-05T02:16:45.810Z,91.05
2015-11-05T02:16:58.109Z,91.05
2015-11-05T02:17:10.422Z,91.05
2015-11-05T02:17:22.703Z,91.05
2015-11-05T02:17:35.016Z,90.96
2015-11-05T02:17:47.328Z,90.86
2015-11-05T02:17:59.643Z,91.53
2015-11-05T02:18:11.971Z,90.96
2015-11-05T02:18:24.190Z,91.24
2015-11-05T02:18:36.393Z,91.91
2015-11-05T02:18:48.690Z,91.81
2015-11-05T02:19:00.989Z,91.43
2015-11-05T02:19:13.286Z,91.91
2015-11-05T02:19:25.443Z,92
2015-11-05T02:19:37.739Z,91.91
2015-11-05T02:19:50.036Z,92.66
2015-11-05T02:20:02.321Z,92.38
2015-11-05T02:20:14.633Z,92.38
2015-11-05T02:20:26.977Z,92.85
2015-11-05T02:20:39.289Z,93.13
2015-11-05T02:20:51.617Z,93.04
2015-11-05T02:21:03.980Z,93.13
2015-11-05T02:21:16.277Z,92.94
2015-11-05T02:21:28.574Z,93.23
2015-11-05T02:21:40.870Z,93.42
2015-11-05T02:21:53.167Z,93.04
2015-11-05T02:22:05.466Z,93.23
2015-11-05T02:22:17.779Z,93.42
2015-11-05T02:22:30.076Z,93.23
2015-11-05T02:22:42.388Z,93.23
2015-11-05T02:22:54.716Z,93.23
2015-11-05T02:23:07.032Z,93.32
2015-11-05T02:23:19.329Z,92.94
2015-11-05T02:23:31.625Z,93.13
2015-11-05T02:23:43.922Z,93.23
2015-11-05T02:23:56.063Z,93.04
2015-11-05T02:24:08.363Z,93.04
2015-11-05T02:24:20.660Z,93.13
2015-11-05T02:24:32.957Z,92.94
2015-11-05T02:24:45.285Z,93.04
2015-11-05T02:24:57.597Z,93.13
2015-11-05T02:25:09.912Z,93.04
2015-11-05T02:25:22.240Z,93.23
2015-11-05T02:25:34.584Z,93.61
2015-11-05T02:25:46.880Z,93.51
2015-11-05T02:25:59.177Z,93.61
2015-11-05T02:26:11.478Z,93.42
2015-11-05T02:26:23.759Z,93.51
2015-11-05T02:26:36.072Z,93.7
2015-11-05T02:26:48.353Z,93.99
2015-11-05T02:27:00.681Z,93.99
2015-11-05T02:27:12.996Z,93.7
2015-11-05T02:27:25.293Z,93.8
2015-11-05T02:27:37.636Z,93.7
2015-11-05T02:27:49.949Z,93.89
2015-11-05T02:28:02.246Z,93.8
2015-11-05T02:28:14.546Z,93.99
2015-11-05T02:28:26.843Z,94.08
2015-11-05T02:28:39.139Z,93.99
2015-11-05T02:28:51.436Z,93.8
2015-11-05T02:29:03.733Z,93.99
2015-11-05T02:29:16.049Z,93.89
2015-11-05T02:29:28.361Z,93.89
2015-11-05T02:29:40.674Z,93.89
2015-11-05T02:29:53.017Z,93.8
2015-11-05T02:30:05.346Z,93.8
2015-11-05T02:30:17.660Z,93.89
2015-11-05T02:30:29.973Z,93.89
2015-11-05T02:30:42.269Z,93.89
2015-11-05T02:30:54.566Z,93.89
2015-11-05T02:31:06.863Z,93.89
2015-11-05T02:31:19.179Z,93.89
2015-11-05T02:31:31.476Z,94.08
2015-11-05T02:31:43.772Z,93.8
2015-11-05T02:31:56.085Z,93.51
2015-11-05T02:32:08.400Z,94.08
2015-11-05T02:32:20.744Z,94.37
2015-11-05T02:32:33.104Z,94.37
2015-11-05T02:32:45.400Z,94.18
2015-11-05T02:32:57.682Z,94.27
2015-11-05T02:33:09.982Z,94.27
2015-11-05T02:33:22.294Z,94.56
2015-11-05T02:33:34.591Z,94.46
2015-11-05T02:33:46.888Z,94.65
2015-11-05T02:33:59.185Z,93.99
2015-11-05T02:34:11.499Z,94.37
2015-11-05T02:34:23.796Z,94.37
2015-11-05T02:34:36.124Z,94.56
2015-11-05T02:34:48.468Z,94.37
2015-11-05T02:35:00.796Z,94.08
2015-11-05T02:35:13.112Z,93.89
2015-11-05T02:35:25.408Z,93.99
2015-11-05T02:35:37.705Z,94.08
2015-11-05T02:35:50.018Z,93.8
2015-11-05T02:36:02.315Z,93.89
2015-11-05T02:36:14.615Z,93.51
2015-11-05T02:36:26.911Z,93.51
2015-11-05T02:36:39.224Z,93.51
2015-11-05T02:36:51.552Z,93.51
2015-11-05T02:37:03.880Z,93.99
2015-11-05T02:37:16.210Z,94.08
2015-11-05T02:37:28.538Z,93.99
2015-11-05T02:37:40.835Z,93.8
2015-11-05T02:37:53.132Z,93.8
2015-11-05T02:38:05.429Z,93.89
2015-11-05T02:38:17.729Z,93.7
2015-11-05T02:38:30.041Z,94.08
2015-11-05T02:38:42.338Z,94.27
2015-11-05T02:38:54.651Z,94.46
2015-11-05T02:39:06.979Z,94.18
2015-11-05T02:39:19.309Z,94.18
2015-11-05T02:39:31.637Z,94.27
2015-11-05T02:39:43.934Z,94.37
2015-11-05T02:39:56.231Z,94.46